sensor_id;sensor_type;location;lat;lon;timestamp;temperature;humidity
72277;SHT30;61204;49.980;8.358;2024-03-29T00:01:33;5.59;83.46
72277;SHT30;61204;49.980;8.358;2024-03-29T00:03:58;5.52;83.74
72277;SHT30;61204;49.980;8.358;2024-03-29T00:06:24;5.51;83.29
72277;SHT30;61204;49.980;8.358;2024-03-29T00:08:49;5.44;83.76
72277;SHT30;61204;49.980;8.358;2024-03-29T00:11:15;5.42;83.92
72277;SHT30;61204;49.980;8.358;2024-03-29T00:13:40;5.41;83.87
72277;SHT30;61204;49.980;8.358;2024-03-29T00:16:06;5.31;84.47
72277;SHT30;61204;49.980;8.358;2024-03-29T00:18:32;5.31;84.27
72277;SHT30;61204;49.980;8.358;2024-03-29T00:20:58;5.31;84.67
72277;SHT30;61204;49.980;8.358;2024-03-29T00:23:23;5.42;84.49
72277;SHT30;61204;49.980;8.358;2024-03-29T00:25:49;5.47;83.95
72277;SHT30;61204;49.980;8.358;2024-03-29T00:28:14;5.40;84.15
72277;SHT30;61204;49.980;8.358;2024-03-29T00:30:40;5.48;84.02
72277;SHT30;61204;49.980;8.358;2024-03-29T00:33:05;5.59;83.80
72277;SHT30;61204;49.980;8.358;2024-03-29T00:35:31;5.85;82.80
72277;SHT30;61204;49.980;8.358;2024-03-29T00:37:56;5.99;82.05
72277;SHT30;61204;49.980;8.358;2024-03-29T00:40:24;5.93;82.08
72277;SHT30;61204;49.980;8.358;2024-03-29T00:42:50;5.85;81.82
72277;SHT30;61204;49.980;8.358;2024-03-29T00:45:15;5.90;81.62
72277;SHT30;61204;49.980;8.358;2024-03-29T00:47:41;5.87;82.08
72277;SHT30;61204;49.980;8.358;2024-03-29T00:50:09;6.10;81.21
72277;SHT30;61204;49.980;8.358;2024-03-29T00:52:35;6.28;80.29
72277;SHT30;61204;49.980;8.358;2024-03-29T00:55:01;6.48;79.44
72277;SHT30;61204;49.980;8.358;2024-03-29T00:57:30;6.56;79.37
72277;SHT30;61204;49.980;8.358;2024-03-29T00:59:59;6.45;79.78
72277;SHT30;61204;49.980;8.358;2024-03-29T01:02:24;6.32;80.54
72277;SHT30;61204;49.980;8.358;2024-03-29T01:04:50;6.18;81.06
72277;SHT30;61204;49.980;8.358;2024-03-29T01:07:16;6.10;81.66
72277;SHT30;61204;49.980;8.358;2024-03-29T01:09:43;6.04;82.08
72277;SHT30;61204;49.980;8.358;2024-03-29T01:12:10;5.97;82.29
72277;SHT30;61204;49.980;8.358;2024-03-29T01:14:38;5.97;82.44
72277;SHT30;61204;49.980;8.358;2024-03-29T01:17:03;5.92;82.94
72277;SHT30;61204;49.980;8.358;2024-03-29T01:19:29;5.97;83.04
72277;SHT30;61204;49.980;8.358;2024-03-29T01:21:55;6.04;82.69
72277;SHT30;61204;49.980;8.358;2024-03-29T01:24:20;6.10;82.59
72277;SHT30;61204;49.980;8.358;2024-03-29T01:26:46;6.07;82.28
72277;SHT30;61204;49.980;8.358;2024-03-29T01:29:12;6.06;82.32
72277;SHT30;61204;49.980;8.358;2024-03-29T01:31:37;6.03;82.49
72277;SHT30;61204;49.980;8.358;2024-03-29T01:34:03;6.03;82.65
72277;SHT30;61204;49.980;8.358;2024-03-29T01:36:29;6.04;82.52
72277;SHT30;61204;49.980;8.358;2024-03-29T01:38:54;6.17;81.93
72277;SHT30;61204;49.980;8.358;2024-03-29T01:41:23;6.16;81.92
72277;SHT30;61204;49.980;8.358;2024-03-29T01:43:50;6.20;81.63
72277;SHT30;61204;49.980;8.358;2024-03-29T01:46:19;6.20;81.72
72277;SHT30;61204;49.980;8.358;2024-03-29T01:48:46;6.20;81.55
72277;SHT30;61204;49.980;8.358;2024-03-29T01:51:13;6.21;81.43
72277;SHT30;61204;49.980;8.358;2024-03-29T01:53:41;6.10;82.00
72277;SHT30;61204;49.980;8.358;2024-03-29T01:56:08;6.02;82.20
72277;SHT30;61204;49.980;8.358;2024-03-29T01:58:34;5.97;82.19
72277;SHT30;61204;49.980;8.358;2024-03-29T02:01:00;5.97;82.28
72277;SHT30;61204;49.980;8.358;2024-03-29T02:03:27;6.16;81.95
72277;SHT30;61204;49.980;8.358;2024-03-29T02:05:55;6.13;81.46
72277;SHT30;61204;49.980;8.358;2024-03-29T02:08:23;6.09;81.41
72277;SHT30;61204;49.980;8.358;2024-03-29T02:10:49;6.02;81.97
72277;SHT30;61204;49.980;8.358;2024-03-29T02:13:16;6.04;81.92
72277;SHT30;61204;49.980;8.358;2024-03-29T02:15:42;6.14;81.58
72277;SHT30;61204;49.980;8.358;2024-03-29T02:18:08;6.37;80.89
72277;SHT30;61204;49.980;8.358;2024-03-29T02:20:34;6.27;81.12
72277;SHT30;61204;49.980;8.358;2024-03-29T02:23:11;6.17;81.54
72277;SHT30;61204;49.980;8.358;2024-03-29T02:25:39;6.10;81.80
72277;SHT30;61204;49.980;8.358;2024-03-29T02:28:05;6.30;81.17
72277;SHT30;61204;49.980;8.358;2024-03-29T02:30:31;6.56;80.21
72277;SHT30;61204;49.980;8.358;2024-03-29T02:32:58;6.53;80.67
72277;SHT30;61204;49.980;8.358;2024-03-29T02:35:25;6.49;81.11
72277;SHT30;61204;49.980;8.358;2024-03-29T02:37:51;6.45;80.90
72277;SHT30;61204;49.980;8.358;2024-03-29T02:40:20;6.40;81.31
72277;SHT30;61204;49.980;8.358;2024-03-29T02:42:48;6.32;81.62
72277;SHT30;61204;49.980;8.358;2024-03-29T02:45:15;6.32;81.73
72277;SHT30;61204;49.980;8.358;2024-03-29T02:47:41;6.37;81.51
72277;SHT30;61204;49.980;8.358;2024-03-29T02:50:13;6.49;80.99
72277;SHT30;61204;49.980;8.358;2024-03-29T02:52:40;6.59;80.65
72277;SHT30;61204;49.980;8.358;2024-03-29T02:55:06;6.62;80.56
72277;SHT30;61204;49.980;8.358;2024-03-29T02:57:32;6.64;80.39
72277;SHT30;61204;49.980;8.358;2024-03-29T02:59:58;6.69;80.27
72277;SHT30;61204;49.980;8.358;2024-03-29T03:02:25;6.75;79.63
72277;SHT30;61204;49.980;8.358;2024-03-29T03:04:51;6.73;79.70
72277;SHT30;61204;49.980;8.358;2024-03-29T03:07:19;6.83;79.87
72277;SHT30;61204;49.980;8.358;2024-03-29T03:10:04;6.97;79.91
72277;SHT30;61204;49.980;8.358;2024-03-29T03:12:51;6.99;80.28
72277;SHT30;61204;49.980;8.358;2024-03-29T03:15:16;6.97;80.51
72277;SHT30;61204;49.980;8.358;2024-03-29T03:17:42;6.92;81.53
72277;SHT30;61204;49.980;8.358;2024-03-29T03:20:10;6.85;82.12
72277;SHT30;61204;49.980;8.358;2024-03-29T03:22:38;6.75;82.67
72277;SHT30;61204;49.980;8.358;2024-03-29T03:25:05;6.92;81.99
72277;SHT30;61204;49.980;8.358;2024-03-29T03:27:30;6.97;82.03
72277;SHT30;61204;49.980;8.358;2024-03-29T03:29:56;6.89;81.12
72277;SHT30;61204;49.980;8.358;2024-03-29T03:32:22;6.82;80.65
72277;SHT30;61204;49.980;8.358;2024-03-29T03:34:47;6.80;82.06
72277;SHT30;61204;49.980;8.358;2024-03-29T03:37:13;6.73;82.59
72277;SHT30;61204;49.980;8.358;2024-03-29T03:39:38;6.92;81.70
72277;SHT30;61204;49.980;8.358;2024-03-29T03:42:04;6.87;81.52
72277;SHT30;61204;49.980;8.358;2024-03-29T03:44:32;6.82;82.40
72277;SHT30;61204;49.980;8.358;2024-03-29T03:46:58;6.66;83.38
72277;SHT30;61204;49.980;8.358;2024-03-29T03:49:23;6.68;83.58
72277;SHT30;61204;49.980;8.358;2024-03-29T03:51:49;6.71;83.65
72277;SHT30;61204;49.980;8.358;2024-03-29T03:54:15;6.82;83.59
72277;SHT30;61204;49.980;8.358;2024-03-29T03:56:40;6.62;83.53
72277;SHT30;61204;49.980;8.358;2024-03-29T03:59:06;6.68;84.08
72277;SHT30;61204;49.980;8.358;2024-03-29T04:01:31;6.55;84.58
72277;SHT30;61204;49.980;8.358;2024-03-29T04:03:57;6.41;85.46
72277;SHT30;61204;49.980;8.358;2024-03-29T04:06:25;6.34;86.06
72277;SHT30;61204;49.980;8.358;2024-03-29T04:08:55;6.28;86.32
72277;SHT30;61204;49.980;8.358;2024-03-29T04:11:20;6.37;86.12
72277;SHT30;61204;49.980;8.358;2024-03-29T04:13:46;6.44;85.66
72277;SHT30;61204;49.980;8.358;2024-03-29T04:16:12;6.62;86.40
72277;SHT30;61204;49.980;8.358;2024-03-29T04:18:39;6.56;86.28
72277;SHT30;61204;49.980;8.358;2024-03-29T04:21:05;6.55;86.41
72277;SHT30;61204;49.980;8.358;2024-03-29T04:23:31;6.68;86.19
72277;SHT30;61204;49.980;8.358;2024-03-29T04:25:59;6.66;86.27
72277;SHT30;61204;49.980;8.358;2024-03-29T04:28:26;6.65;87.15
72277;SHT30;61204;49.980;8.358;2024-03-29T04:31:00;6.55;87.43
72277;SHT30;61204;49.980;8.358;2024-03-29T04:33:27;6.51;88.00
72277;SHT30;61204;49.980;8.358;2024-03-29T04:38:31;6.38;88.64
72277;SHT30;61204;49.980;8.358;2024-03-29T04:40:58;6.46;87.58
72277;SHT30;61204;49.980;8.358;2024-03-29T04:43:28;6.61;87.48
72277;SHT30;61204;49.980;8.358;2024-03-29T04:46:09;6.56;88.20
72277;SHT30;61204;49.980;8.358;2024-03-29T04:48:41;6.56;87.23
72277;SHT30;61204;49.980;8.358;2024-03-29T04:51:08;6.62;87.88
72277;SHT30;61204;49.980;8.358;2024-03-29T04:53:38;6.52;87.81
72277;SHT30;61204;49.980;8.358;2024-03-29T04:56:05;6.56;87.68
72277;SHT30;61204;49.980;8.358;2024-03-29T04:58:31;6.59;87.12
72277;SHT30;61204;49.980;8.358;2024-03-29T05:00:57;6.69;87.13
72277;SHT30;61204;49.980;8.358;2024-03-29T05:03:23;6.66;87.46
72277;SHT30;61204;49.980;8.358;2024-03-29T05:05:51;6.65;86.70
72277;SHT30;61204;49.980;8.358;2024-03-29T05:08:17;6.69;87.88
72277;SHT30;61204;49.980;8.358;2024-03-29T05:10:49;6.62;88.35
72277;SHT30;61204;49.980;8.358;2024-03-29T05:13:16;6.62;88.37
72277;SHT30;61204;49.980;8.358;2024-03-29T05:15:43;6.58;88.73
72277;SHT30;61204;49.980;8.358;2024-03-29T05:18:08;6.66;88.07
72277;SHT30;61204;49.980;8.358;2024-03-29T05:20:34;6.62;88.03
72277;SHT30;61204;49.980;8.358;2024-03-29T05:23:00;6.65;87.90
72277;SHT30;61204;49.980;8.358;2024-03-29T05:25:26;6.53;88.97
72277;SHT30;61204;49.980;8.358;2024-03-29T05:27:52;6.62;87.82
72277;SHT30;61204;49.980;8.358;2024-03-29T05:30:18;6.64;88.54
72277;SHT30;61204;49.980;8.358;2024-03-29T05:32:44;6.66;87.89
72277;SHT30;61204;49.980;8.358;2024-03-29T05:35:10;6.56;88.78
72277;SHT30;61204;49.980;8.358;2024-03-29T05:37:37;6.59;88.55
72277;SHT30;61204;49.980;8.358;2024-03-29T05:40:03;6.69;87.62
72277;SHT30;61204;49.980;8.358;2024-03-29T05:42:32;6.55;88.77
72277;SHT30;61204;49.980;8.358;2024-03-29T05:45:04;6.58;88.67
72277;SHT30;61204;49.980;8.358;2024-03-29T05:47:31;6.62;88.83
72277;SHT30;61204;49.980;8.358;2024-03-29T05:49:56;6.69;88.52
72277;SHT30;61204;49.980;8.358;2024-03-29T05:52:22;6.61;89.28
72277;SHT30;61204;49.980;8.358;2024-03-29T05:54:48;6.52;89.08
72277;SHT30;61204;49.980;8.358;2024-03-29T05:57:14;6.82;87.71
72277;SHT30;61204;49.980;8.358;2024-03-29T05:59:41;6.94;86.75
72277;SHT30;61204;49.980;8.358;2024-03-29T06:02:06;6.89;87.76
72277;SHT30;61204;49.980;8.358;2024-03-29T06:04:32;6.73;88.57
72277;SHT30;61204;49.980;8.358;2024-03-29T06:07:02;6.73;89.13
72277;SHT30;61204;49.980;8.358;2024-03-29T06:09:29;6.82;89.45
72277;SHT30;61204;49.980;8.358;2024-03-29T06:11:56;6.82;89.10
72277;SHT30;61204;49.980;8.358;2024-03-29T06:14:25;6.92;88.64
72277;SHT30;61204;49.980;8.358;2024-03-29T06:17:10;6.82;89.56
72277;SHT30;61204;49.980;8.358;2024-03-29T06:19:49;6.80;90.17
72277;SHT30;61204;49.980;8.358;2024-03-29T06:22:22;6.80;90.23
72277;SHT30;61204;49.980;8.358;2024-03-29T06:24:55;6.83;90.54
72277;SHT30;61204;49.980;8.358;2024-03-29T06:27:25;6.92;90.04
72277;SHT30;61204;49.980;8.358;2024-03-29T06:29:51;6.96;90.33
72277;SHT30;61204;49.980;8.358;2024-03-29T06:32:17;7.07;90.05
72277;SHT30;61204;49.980;8.358;2024-03-29T06:34:47;7.10;89.79
72277;SHT30;61204;49.980;8.358;2024-03-29T06:37:13;7.14;90.01
72277;SHT30;61204;49.980;8.358;2024-03-29T06:39:39;7.17;90.19
72277;SHT30;61204;49.980;8.358;2024-03-29T06:42:05;7.25;90.25
72277;SHT30;61204;49.980;8.358;2024-03-29T06:44:34;7.18;90.73
72277;SHT30;61204;49.980;8.358;2024-03-29T06:47:00;7.30;90.40
72277;SHT30;61204;49.980;8.358;2024-03-29T06:49:26;7.28;90.74
72277;SHT30;61204;49.980;8.358;2024-03-29T06:51:52;7.34;90.71
72277;SHT30;61204;49.980;8.358;2024-03-29T06:54:19;7.41;90.74
72277;SHT30;61204;49.980;8.358;2024-03-29T06:56:50;7.41;90.84
72277;SHT30;61204;49.980;8.358;2024-03-29T06:59:15;7.59;90.68
72277;SHT30;61204;49.980;8.358;2024-03-29T07:01:43;7.65;90.70
72277;SHT30;61204;49.980;8.358;2024-03-29T07:04:09;7.72;90.08
72277;SHT30;61204;49.980;8.358;2024-03-29T07:06:34;7.65;90.69
72277;SHT30;61204;49.980;8.358;2024-03-29T07:09:02;7.69;91.04
72277;SHT30;61204;49.980;8.358;2024-03-29T07:11:29;7.73;91.39
72277;SHT30;61204;49.980;8.358;2024-03-29T07:13:54;7.70;91.02
72277;SHT30;61204;49.980;8.358;2024-03-29T07:16:20;7.75;91.14
72277;SHT30;61204;49.980;8.358;2024-03-29T07:18:45;7.79;91.25
72277;SHT30;61204;49.980;8.358;2024-03-29T07:21:11;7.75;91.52
72277;SHT30;61204;49.980;8.358;2024-03-29T07:23:37;7.79;91.42
72277;SHT30;61204;49.980;8.358;2024-03-29T07:26:04;7.72;92.14
72277;SHT30;61204;49.980;8.358;2024-03-29T07:28:31;7.65;92.49
72277;SHT30;61204;49.980;8.358;2024-03-29T07:30:57;7.52;92.12
72277;SHT30;61204;49.980;8.358;2024-03-29T07:33:30;7.56;92.26
72277;SHT30;61204;49.980;8.358;2024-03-29T07:35:55;7.62;92.38
72277;SHT30;61204;49.980;8.358;2024-03-29T07:38:22;7.61;92.55
72277;SHT30;61204;49.980;8.358;2024-03-29T07:40:51;7.61;92.71
72277;SHT30;61204;49.980;8.358;2024-03-29T07:43:22;7.61;92.96
72277;SHT30;61204;49.980;8.358;2024-03-29T07:45:48;7.54;92.61
72277;SHT30;61204;49.980;8.358;2024-03-29T07:48:16;7.51;92.68
72277;SHT30;61204;49.980;8.358;2024-03-29T07:50:45;7.42;92.76
72277;SHT30;61204;49.980;8.358;2024-03-29T07:53:12;7.48;93.12
72277;SHT30;61204;49.980;8.358;2024-03-29T07:55:40;7.49;93.20
72277;SHT30;61204;49.980;8.358;2024-03-29T07:58:06;7.52;92.48
72277;SHT30;61204;49.980;8.358;2024-03-29T08:00:34;7.55;92.55
72277;SHT30;61204;49.980;8.358;2024-03-29T08:03:01;7.51;92.27
72277;SHT30;61204;49.980;8.358;2024-03-29T08:05:27;7.54;92.58
72277;SHT30;61204;49.980;8.358;2024-03-29T08:07:55;7.54;93.30
72277;SHT30;61204;49.980;8.358;2024-03-29T08:10:21;7.68;93.09
72277;SHT30;61204;49.980;8.358;2024-03-29T08:12:47;7.68;93.05
72277;SHT30;61204;49.980;8.358;2024-03-29T08:15:12;7.75;93.10
72277;SHT30;61204;49.980;8.358;2024-03-29T08:17:38;7.91;92.83
72277;SHT30;61204;49.980;8.358;2024-03-29T08:20:04;8.05;92.34
72277;SHT30;61204;49.980;8.358;2024-03-29T08:22:30;8.18;92.59
72277;SHT30;61204;49.980;8.358;2024-03-29T08:25:01;7.96;92.51
72277;SHT30;61204;49.980;8.358;2024-03-29T08:27:27;7.93;93.09
72277;SHT30;61204;49.980;8.358;2024-03-29T08:29:54;7.87;93.41
72277;SHT30;61204;49.980;8.358;2024-03-29T08:32:20;7.97;93.62
72277;SHT30;61204;49.980;8.358;2024-03-29T08:34:46;7.90;93.82
72277;SHT30;61204;49.980;8.358;2024-03-29T08:37:11;7.97;94.09
72277;SHT30;61204;49.980;8.358;2024-03-29T08:39:39;7.97;94.13
72277;SHT30;61204;49.980;8.358;2024-03-29T08:42:07;8.00;94.37
72277;SHT30;61204;49.980;8.358;2024-03-29T08:44:36;8.14;93.91
72277;SHT30;61204;49.980;8.358;2024-03-29T08:47:04;8.34;93.77
72277;SHT30;61204;49.980;8.358;2024-03-29T08:49:30;8.31;93.19
72277;SHT30;61204;49.980;8.358;2024-03-29T08:51:57;8.28;93.04
72277;SHT30;61204;49.980;8.358;2024-03-29T08:54:27;8.24;93.18
72277;SHT30;61204;49.980;8.358;2024-03-29T08:56:53;8.34;92.66
72277;SHT30;61204;49.980;8.358;2024-03-29T08:59:18;8.31;93.36
72277;SHT30;61204;49.980;8.358;2024-03-29T09:01:46;8.14;93.53
72277;SHT30;61204;49.980;8.358;2024-03-29T09:04:17;8.30;93.30
72277;SHT30;61204;49.980;8.358;2024-03-29T09:06:45;8.32;93.57
72277;SHT30;61204;49.980;8.358;2024-03-29T09:09:10;8.32;93.24
72277;SHT30;61204;49.980;8.358;2024-03-29T09:11:36;8.63;92.55
72277;SHT30;61204;49.980;8.358;2024-03-29T09:14:02;8.60;92.28
72277;SHT30;61204;49.980;8.358;2024-03-29T09:16:31;8.83;92.67
72277;SHT30;61204;49.980;8.358;2024-03-29T09:19:01;8.66;91.03
72277;SHT30;61204;49.980;8.358;2024-03-29T09:21:27;8.73;91.51
72277;SHT30;61204;49.980;8.358;2024-03-29T09:23:53;8.72;90.92
72277;SHT30;61204;49.980;8.358;2024-03-29T09:26:20;8.84;91.31
72277;SHT30;61204;49.980;8.358;2024-03-29T09:28:45;8.84;91.50
72277;SHT30;61204;49.980;8.358;2024-03-29T09:31:11;8.90;91.69
72277;SHT30;61204;49.980;8.358;2024-03-29T09:33:36;8.93;90.49
72277;SHT30;61204;49.980;8.358;2024-03-29T09:36:03;9.01;90.43
72277;SHT30;61204;49.980;8.358;2024-03-29T09:38:28;9.05;90.58
72277;SHT30;61204;49.980;8.358;2024-03-29T09:41:10;9.08;89.63
72277;SHT30;61204;49.980;8.358;2024-03-29T09:43:43;9.15;90.19
72277;SHT30;61204;49.980;8.358;2024-03-29T09:46:14;9.14;91.12
72277;SHT30;61204;49.980;8.358;2024-03-29T09:48:41;9.14;90.42
72277;SHT30;61204;49.980;8.358;2024-03-29T09:51:11;9.24;90.94
72277;SHT30;61204;49.980;8.358;2024-03-29T09:53:43;9.38;90.68
72277;SHT30;61204;49.980;8.358;2024-03-29T09:56:09;9.50;90.24
72277;SHT30;61204;49.980;8.358;2024-03-29T09:58:37;9.76;90.38
72277;SHT30;61204;49.980;8.358;2024-03-29T10:01:07;9.85;89.72
72277;SHT30;61204;49.980;8.358;2024-03-29T10:03:42;10.01;89.56
72277;SHT30;61204;49.980;8.358;2024-03-29T10:06:18;9.97;88.54
72277;SHT30;61204;49.980;8.358;2024-03-29T10:08:45;9.96;88.35
72277;SHT30;61204;49.980;8.358;2024-03-29T10:11:13;9.93;88.73
72277;SHT30;61204;49.980;8.358;2024-03-29T10:13:42;10.01;90.27
72277;SHT30;61204;49.980;8.358;2024-03-29T10:16:10;10.13;90.48
72277;SHT30;61204;49.980;8.358;2024-03-29T10:18:36;10.04;90.05
72277;SHT30;61204;49.980;8.358;2024-03-29T10:21:04;10.07;89.60
72277;SHT30;61204;49.980;8.358;2024-03-29T10:23:34;10.07;91.21
72277;SHT30;61204;49.980;8.358;2024-03-29T10:26:02;10.32;90.52
72277;SHT30;61204;49.980;8.358;2024-03-29T10:28:35;10.58;90.41
72277;SHT30;61204;49.980;8.358;2024-03-29T10:31:04;10.59;88.54
72277;SHT30;61204;49.980;8.358;2024-03-29T10:33:32;10.86;89.30
72277;SHT30;61204;49.980;8.358;2024-03-29T10:36:01;10.73;87.99
72277;SHT30;61204;49.980;8.358;2024-03-29T10:38:31;10.49;88.03
72277;SHT30;61204;49.980;8.358;2024-03-29T10:40:57;10.55;88.63
72277;SHT30;61204;49.980;8.358;2024-03-29T10:43:24;10.42;88.55
72277;SHT30;61204;49.980;8.358;2024-03-29T10:45:52;10.42;88.39
72277;SHT30;61204;49.980;8.358;2024-03-29T10:48:26;10.39;88.87
72277;SHT30;61204;49.980;8.358;2024-03-29T10:50:55;10.48;88.40
72277;SHT30;61204;49.980;8.358;2024-03-29T10:53:23;10.49;88.55
72277;SHT30;61204;49.980;8.358;2024-03-29T10:55:59;10.58;88.00
72277;SHT30;61204;49.980;8.358;2024-03-29T10:58:30;10.58;88.97
72277;SHT30;61204;49.980;8.358;2024-03-29T11:01:01;10.79;89.21
72277;SHT30;61204;49.980;8.358;2024-03-29T11:03:54;10.81;88.07
72277;SHT30;61204;49.980;8.358;2024-03-29T11:06:30;10.96;88.16
72277;SHT30;61204;49.980;8.358;2024-03-29T11:08:59;10.99;87.22
72277;SHT30;61204;49.980;8.358;2024-03-29T11:11:27;10.87;87.37
72277;SHT30;61204;49.980;8.358;2024-03-29T11:14:05;10.89;87.30
72277;SHT30;61204;49.980;8.358;2024-03-29T11:16:35;10.97;87.72
72277;SHT30;61204;49.980;8.358;2024-03-29T11:19:02;11.17;87.81
72277;SHT30;61204;49.980;8.358;2024-03-29T11:21:31;11.31;87.07
72277;SHT30;61204;49.980;8.358;2024-03-29T11:23:57;11.31;86.94
72277;SHT30;61204;49.980;8.358;2024-03-29T11:26:27;11.15;86.52
72277;SHT30;61204;49.980;8.358;2024-03-29T11:28:53;11.06;86.98
72277;SHT30;61204;49.980;8.358;2024-03-29T11:31:24;11.10;87.51
72277;SHT30;61204;49.980;8.358;2024-03-29T11:33:51;11.01;87.66
72277;SHT30;61204;49.980;8.358;2024-03-29T11:36:29;10.86;87.92
72277;SHT30;61204;49.980;8.358;2024-03-29T11:38:58;10.67;87.62
72277;SHT30;61204;49.980;8.358;2024-03-29T11:41:26;10.70;89.08
72277;SHT30;61204;49.980;8.358;2024-03-29T11:43:56;10.70;89.72
72277;SHT30;61204;49.980;8.358;2024-03-29T11:46:23;10.70;89.31
72277;SHT30;61204;49.980;8.358;2024-03-29T11:48:53;10.73;89.08
72277;SHT30;61204;49.980;8.358;2024-03-29T11:51:22;10.87;89.56
72277;SHT30;61204;49.980;8.358;2024-03-29T11:53:49;10.94;89.78
72277;SHT30;61204;49.980;8.358;2024-03-29T11:56:20;11.22;90.04
72277;SHT30;61204;49.980;8.358;2024-03-29T11:58:48;11.41;89.30
72277;SHT30;61204;49.980;8.358;2024-03-29T12:01:15;11.51;89.37
72277;SHT30;61204;49.980;8.358;2024-03-29T12:03:42;11.66;88.58
72277;SHT30;61204;49.980;8.358;2024-03-29T12:06:09;11.65;88.84
72277;SHT30;61204;49.980;8.358;2024-03-29T12:08:40;11.67;88.69
72277;SHT30;61204;49.980;8.358;2024-03-29T12:11:08;11.69;88.31
72277;SHT30;61204;49.980;8.358;2024-03-29T12:13:34;11.72;88.13
72277;SHT30;61204;49.980;8.358;2024-03-29T12:16:01;11.66;89.09
72277;SHT30;61204;49.980;8.358;2024-03-29T12:18:29;11.75;89.01
72277;SHT30;61204;49.980;8.358;2024-03-29T12:20:57;11.77;89.51
72277;SHT30;61204;49.980;8.358;2024-03-29T12:23:23;11.80;89.61
72277;SHT30;61204;49.980;8.358;2024-03-29T12:25:54;11.94;89.25
72277;SHT30;61204;49.980;8.358;2024-03-29T12:28:25;11.91;90.11
72277;SHT30;61204;49.980;8.358;2024-03-29T12:30:52;11.98;89.47
72277;SHT30;61204;49.980;8.358;2024-03-29T12:33:23;11.98;90.14
72277;SHT30;61204;49.980;8.358;2024-03-29T12:35:52;11.89;89.92
72277;SHT30;61204;49.980;8.358;2024-03-29T12:38:21;11.83;90.15
72277;SHT30;61204;49.980;8.358;2024-03-29T12:40:50;11.77;91.17
72277;SHT30;61204;49.980;8.358;2024-03-29T12:43:23;11.83;90.61
72277;SHT30;61204;49.980;8.358;2024-03-29T12:45:51;11.79;90.98
72277;SHT30;61204;49.980;8.358;2024-03-29T12:48:21;11.73;91.27
72277;SHT30;61204;49.980;8.358;2024-03-29T12:50:50;11.75;91.07
72277;SHT30;61204;49.980;8.358;2024-03-29T12:53:18;11.90;91.07
72277;SHT30;61204;49.980;8.358;2024-03-29T12:55:47;11.95;91.01
72277;SHT30;61204;49.980;8.358;2024-03-29T12:58:17;11.91;91.14
72277;SHT30;61204;49.980;8.358;2024-03-29T13:00:47;11.95;90.98
72277;SHT30;61204;49.980;8.358;2024-03-29T13:03:12;11.87;90.53
72277;SHT30;61204;49.980;8.358;2024-03-29T13:05:40;11.95;90.75
72277;SHT30;61204;49.980;8.358;2024-03-29T13:08:14;11.95;91.02
72277;SHT30;61204;49.980;8.358;2024-03-29T13:10:43;12.05;90.98
72277;SHT30;61204;49.980;8.358;2024-03-29T13:13:10;12.27;90.81
72277;SHT30;61204;49.980;8.358;2024-03-29T13:15:38;12.46;90.87
72277;SHT30;61204;49.980;8.358;2024-03-29T13:18:06;12.58;90.44
72277;SHT30;61204;49.980;8.358;2024-03-29T13:20:35;12.70;90.30
72277;SHT30;61204;49.980;8.358;2024-03-29T13:23:06;12.77;89.28
72277;SHT30;61204;49.980;8.358;2024-03-29T13:25:31;12.76;90.37
72277;SHT30;61204;49.980;8.358;2024-03-29T13:27:57;12.75;90.44
72277;SHT30;61204;49.980;8.358;2024-03-29T13:30:27;12.96;90.29
72277;SHT30;61204;49.980;8.358;2024-03-29T13:32:55;13.08;88.53
72277;SHT30;61204;49.980;8.358;2024-03-29T13:35:23;13.21;88.62
72277;SHT30;61204;49.980;8.358;2024-03-29T13:37:51;13.14;88.15
72277;SHT30;61204;49.980;8.358;2024-03-29T13:40:22;13.18;88.80
72277;SHT30;61204;49.980;8.358;2024-03-29T13:42:52;13.14;87.48
72277;SHT30;61204;49.980;8.358;2024-03-29T13:45:17;13.18;88.07
72277;SHT30;61204;49.980;8.358;2024-03-29T13:47:45;13.27;87.89
72277;SHT30;61204;49.980;8.358;2024-03-29T13:50:14;13.28;87.72
72277;SHT30;61204;49.980;8.358;2024-03-29T13:52:42;13.25;87.70
72277;SHT30;61204;49.980;8.358;2024-03-29T13:55:09;13.17;87.81
72277;SHT30;61204;49.980;8.358;2024-03-29T13:57:36;13.11;87.62
72277;SHT30;61204;49.980;8.358;2024-03-29T14:00:03;13.20;87.33
72277;SHT30;61204;49.980;8.358;2024-03-29T14:02:32;13.22;87.12
72277;SHT30;61204;49.980;8.358;2024-03-29T14:04:59;13.25;87.53
72277;SHT30;61204;49.980;8.358;2024-03-29T14:07:25;13.31;88.04
72277;SHT30;61204;49.980;8.358;2024-03-29T14:09:52;13.55;88.05
72277;SHT30;61204;49.980;8.358;2024-03-29T14:12:18;13.77;87.90
72277;SHT30;61204;49.980;8.358;2024-03-29T14:14:46;13.87;86.94
72277;SHT30;61204;49.980;8.358;2024-03-29T14:17:15;13.97;87.60
72277;SHT30;61204;49.980;8.358;2024-03-29T14:19:44;14.06;86.90
72277;SHT30;61204;49.980;8.358;2024-03-29T14:22:10;13.99;87.20
72277;SHT30;61204;49.980;8.358;2024-03-29T14:24:41;13.94;86.61
72277;SHT30;61204;49.980;8.358;2024-03-29T14:27:06;13.97;86.27
72277;SHT30;61204;49.980;8.358;2024-03-29T14:29:33;13.83;86.49
72277;SHT30;61204;49.980;8.358;2024-03-29T14:32:00;13.77;86.64
72277;SHT30;61204;49.980;8.358;2024-03-29T14:34:27;13.69;86.91
72277;SHT30;61204;49.980;8.358;2024-03-29T14:36:53;13.94;86.83
72277;SHT30;61204;49.980;8.358;2024-03-29T14:39:19;14.07;86.73
72277;SHT30;61204;49.980;8.358;2024-03-29T14:41:49;13.91;85.92
72277;SHT30;61204;49.980;8.358;2024-03-29T14:44:17;13.89;85.98
72277;SHT30;61204;49.980;8.358;2024-03-29T14:46:46;13.99;86.22
72277;SHT30;61204;49.980;8.358;2024-03-29T14:49:16;13.70;86.71
72277;SHT30;61204;49.980;8.358;2024-03-29T14:51:42;13.54;87.60
72277;SHT30;61204;49.980;8.358;2024-03-29T14:54:09;13.51;87.24
72277;SHT30;61204;49.980;8.358;2024-03-29T14:56:35;13.45;87.27
72277;SHT30;61204;49.980;8.358;2024-03-29T14:59:06;13.22;88.01
72277;SHT30;61204;49.980;8.358;2024-03-29T15:01:35;13.32;88.10
72277;SHT30;61204;49.980;8.358;2024-03-29T15:04:01;13.21;88.02
72277;SHT30;61204;49.980;8.358;2024-03-29T15:06:27;13.17;87.17
72277;SHT30;61204;49.980;8.358;2024-03-29T15:08:54;13.07;88.72
72277;SHT30;61204;49.980;8.358;2024-03-29T15:11:23;13.04;88.56
72277;SHT30;61204;49.980;8.358;2024-03-29T15:13:52;13.08;88.75
72277;SHT30;61204;49.980;8.358;2024-03-29T15:16:18;13.08;88.97
72277;SHT30;61204;49.980;8.358;2024-03-29T15:18:45;13.06;89.10
72277;SHT30;61204;49.980;8.358;2024-03-29T15:21:13;12.89;89.60
72277;SHT30;61204;49.980;8.358;2024-03-29T15:23:39;12.92;90.41
72277;SHT30;61204;49.980;8.358;2024-03-29T15:26:05;12.75;91.18
72277;SHT30;61204;49.980;8.358;2024-03-29T15:28:31;12.66;91.44
72277;SHT30;61204;49.980;8.358;2024-03-29T15:31:18;12.63;91.85
72277;SHT30;61204;49.980;8.358;2024-03-29T15:33:50;12.52;92.00
72277;SHT30;61204;49.980;8.358;2024-03-29T15:36:18;12.52;92.16
72277;SHT30;61204;49.980;8.358;2024-03-29T15:38:47;12.42;92.13
72277;SHT30;61204;49.980;8.358;2024-03-29T15:41:37;12.32;92.45
72277;SHT30;61204;49.980;8.358;2024-03-29T15:44:07;12.22;93.33
72277;SHT30;61204;49.980;8.358;2024-03-29T15:46:34;12.30;93.41